| time (UTC) | temp C | wind direction | speed KPH | gust KPH | rain 1hr cm | rain 24hr cm | rain mn cm | humidity % | barometer mb |
| 20260905202211 | 12 | 260 | 19.3 | 0.0 | 0.00 | 0.00 | 0.00 | 58 | |
| 20260905192606 | 13 | 270 | 14.5 | 0.0 | 0.00 | 0.00 | 0.00 | 54 | |
| 20260905182155 | 15 | 280 | 19.3 | 0.0 | 0.00 | 0.00 | 0.00 | 51 | |
| 20260905172241 | 16 | 280 | 22.5 | 0.0 | 0.00 | 0.00 | 0.00 | 48 | |
| 20260905162558 | 17 | 270 | 29.0 | 46.7 | 0.00 | 0.00 | 0.00 | 48 | |
| 20260905152035 | 17 | 270 | 25.7 | 0.0 | 0.00 | 0.00 | 0.00 | 45 | |
| 20260905142033 | 17 | 290 | 25.7 | 0.0 | 0.00 | 0.00 | 0.00 | 39 | |
| 20260905132351 | 17 | 280 | 29.0 | 49.9 | 0.00 | 0.00 | 0.00 | 39 | |
| 20260905122249 | 16 | 290 | 25.7 | 0.0 | 0.00 | 0.00 | 0.00 | 59 | |
| 20260905112209 | 17 | 280 | 22.5 | 38.6 | 0.00 | 0.00 | 0.00 | 51 | |
| 20260905102618 | 16 | 270 | 25.7 | 41.8 | 0.00 | 0.00 | 0.00 | 67 | |
| 20260905092137 | 13 | 270 | 22.5 | 0.0 | 0.00 | 0.00 | 0.00 | 76 | |
| 20260905082216 | 12 | 280 | 22.5 | 0.0 | 0.00 | 0.00 | 0.00 | 81 | |
| 20260905072528 | 12 | 270 | 22.5 | 38.6 | 0.00 | 0.00 | 0.00 | 87 | |
| 20260905062217 | 12 | 240 | 14.5 | 0.0 | 0.00 | 0.00 | 0.00 | 87 | |
| 20260905052214 | 13 | 290 | 19.3 | 0.0 | 0.00 | 0.00 | 0.00 | 71 | |
| 20260905042617 | 13 | 260 | 19.3 | 0.0 | 0.00 | 0.00 | 0.00 | 76 | |
| 20260905032221 | 15 | 230 | 11.3 | 0.0 | 0.00 | 0.00 | 0.00 | 72 | |
| 20260905022216 | 15 | 0 | 3.2 | 0.0 | 0.00 | 0.00 | 0.00 | 72 | |
| 20260905012534 | 15 | 30 | 14.5 | 0.0 | 0.00 | 0.00 | 0.00 | 72 | |
| 20260905002230 | 16 | 50 | 11.3 | 0.0 | 0.00 | 0.00 | 0.00 | 72 | |
| 20260904232306 | 20 | 230 | 11.3 | 0.0 | 0.00 | 0.00 | 0.00 | 52 | |
| 20260904222632 | 20 | 220 | 19.3 | 0.0 | 0.00 | 0.00 | 0.00 | 52 | |
| 20260904212216 | 21 | 220 | 22.5 | 0.0 | 0.00 | 0.00 | 0.00 | 49 |